Airfield :
LOGIN :

Register | Disclaimer

   EN    FR    IT 

 










Legend :    VFR   Marginal VFR   IFR   Intensive IFR   Very Intensive IFR
Visi :
Ceiling :
>= 8 km
>= 3000ft
5 to 8 km
1000 to 3000 ft
1500m to 5 km
500 to 1000 ft
800 to 1500m
200 to 500 ft
< 800m
< 200 ft
Symbols :   Thunderstorms  Fog  Heavy snow  Heavy precipitations  Wind > 20 kt
SIGMETs :     Misc.  Thunderstorms  Icing  Turbulence  Mountain Waves  Volcanic Ashes






- Airport Elevation : 37 ft
- IATA code : HLY


EGOV - RAF Valley

CURRENT METAR :
  • 011420Z 24016KT 9999 FEW025 BKN030 BKN040 09/07 Q1023 NOSIG RMK BLU BLU

EXPIRED METARs :
  • 011350Z 24018KT 9999 FEW025 BKN032 BKN045 09/06 Q1023 NOSIG RMK BLU BLU
  • 011320Z 24019KT 9999 FEW024 SCT028 BKN040 09/06 Q1023 NOSIG RMK BLU BLU
  • 011250Z 24020KT 9999 -RA FEW023 SCT027 BKN042 09/06 Q1023 NOSIG RMK BLU BLU
  • 011220Z 24019KT 9999 FEW024 SCT044 BKN055 10/06 Q1024 NOSIG RMK BLU BLU
  • 011150Z 24021KT 9999 FEW024 BKN027 09/06 Q1024 NOSIG RMK BLU BLU

TAF TAF EGOV
Valid from the 01 at 15:00 until the 01 at 18:00 UTC


011323Z 0115/0118 24018G28KT 9999 FEW024 SCT027
PROB30
TEMPO 0115/0118 SCT024



MET'MAP, your aeronautical weather chart ! - Copyright ORBIFLY December 2007 - Disclaimer

ORBIFLY MET'MAP TEAM :

Programming & Development : Alexandra Zaïnal
Original concept : Baudouin d'Aumeries
Technical & hardware support : Manuel Goepfert
Assistance : Marc-Olivier Méhu




SOURCES & CREDITS :

   NOAA